12°C Temp
10°C Dewpoint
88% Humidity
Temperature
16 KM/H
10 MPH
9 KTS
40°
North East

Wind Speed
Light Rain
Showers
Pressure 1013.92 (hPa) - 29.94 (in)
Visibility 3.1 (mi) - 5.0 (km)

Current Conditions
LIMJ
Location 7(km)
Metar :LIMJ 121120Z 04009KT 5000 -RA BR FEW010 BKN018 12/10 Q1014
Mon 12th April 13:20 pm

Airport
  Metar Aviation API Data Provided by https://www.checkwx.com/ PHP scripts by weather34.com ©2021